Time;durP1;ratioP1;P1;durP2;ratioP2;P2;SDS_P1;SDS_P2;PMS_P1;PMS_P2;Temp;Humidity;BMP_temperature;BMP_pressure;BME280_temperature;BME280_humidity;BME280_pressure;Samples;Min_cycle;Max_cycle;Signal;HPM_P1;HPM_P2
2021/05/31 00:01:46;;;;;;;14.40;12.53;;;;;;;10.02;81.55;97065.90;1640260;85;21080;-76
2021/05/31 00:04:12;;;;;;;14.55;12.33;;;;;;;10.05;81.49;97062.16;1647472;85;21174;-76
2021/05/31 00:07:09;;;;;;;14.85;13.25;;;;;;;10.07;81.35;97063.62;1649530;86;21387;-76
2021/05/31 00:09:35;;;;;;;14.73;12.23;;;;;;;10.08;81.25;97063.94;1649068;86;20969;-76
2021/05/31 00:12:03;;;;;;;15.20;13.55;;;;;;;10.07;81.39;97066.70;1647929;86;20986;-76
2021/05/31 00:14:28;;;;;;;15.15;12.93;;;;;;;10.06;81.37;97067.19;1650932;86;20992;-76
2021/05/31 00:16:54;;;;;;;16.50;13.13;;;;;;;10.05;81.42;97068.66;1640188;86;21402;-76
2021/05/31 00:19:20;;;;;;;14.50;13.00;;;;;;;10.03;81.42;97062.33;1648015;86;21140;-76
2021/05/31 00:21:47;;;;;;;14.38;12.58;;;;;;;10.00;81.36;97060.06;1647958;86;20977;-76
2021/05/31 00:24:13;;;;;;;17.92;13.72;;;;;;;9.99;81.39;97052.44;1649793;86;21014;-76
2021/05/31 00:26:38;;;;;;;16.48;14.63;;;;;;;9.98;81.28;97058.60;1650010;86;21075;-76
2021/05/31 00:29:04;;;;;;;15.25;12.60;;;;;;;9.98;81.25;97053.41;1646572;85;21050;-76
2021/05/31 00:31:30;;;;;;;15.03;12.75;;;;;;;9.95;81.34;97053.73;1645281;85;21083;-77
2021/05/31 00:33:56;;;;;;;16.10;13.98;;;;;;;9.91;81.35;97050.63;1620821;87;21019;-77
2021/05/31 00:36:21;;;;;;;14.63;12.13;;;;;;;9.89;81.33;97047.38;1641670;84;20993;-77
2021/05/31 00:38:47;;;;;;;15.75;12.98;;;;;;;9.90;81.29;97043.81;1650199;85;21105;-77
2021/05/31 00:41:13;;;;;;;15.88;13.58;;;;;;;9.88;81.26;97042.68;1658677;85;20954;-78
2021/05/31 00:43:39;;;;;;;17.27;14.30;;;;;;;9.90;81.20;97039.92;1678403;84;21059;-77
2021/05/31 00:46:07;;;;;;;14.05;12.58;;;;;;;9.88;81.16;97040.57;1682035;84;21272;-76
2021/05/31 00:48:34;;;;;;;16.75;13.18;;;;;;;9.83;81.11;97040.25;1688326;84;21352;-76
2021/05/31 00:51:02;;;;;;;15.13;12.15;;;;;;;9.77;81.03;97038.31;1679506;84;20978;-76
2021/05/31 00:53:28;;;;;;;13.85;11.48;;;;;;;9.76;80.99;97034.91;1680531;85;21018;-76
2021/05/31 00:55:54;;;;;;;14.78;12.10;;;;;;;9.75;80.96;97025.47;1659734;85;20970;-76
2021/05/31 00:58:26;;;;;;;14.55;11.90;;;;;;;9.75;80.94;97021.58;1659416;85;20978;-76
2021/05/31 01:00:50;;;;;;;14.40;12.50;;;;;;;9.73;80.86;97022.22;1659343;85;21065;-76
2021/05/31 01:03:16;;;;;;;15.40;13.35;;;;;;;9.71;80.87;97020.28;1661998;85;21006;-76
2021/05/31 01:05:42;;;;;;;16.85;13.40;;;;;;;9.67;80.87;97017.69;1665117;85;21097;-76
2021/05/31 01:08:12;;;;;;;15.15;12.58;;;;;;;9.62;80.86;97019.47;1639606;85;21038;-76
2021/05/31 01:11:04;;;;;;;15.48;13.15;;;;;;;9.58;80.96;97026.41;1660452;85;20955;-76
2021/05/31 01:13:45;;;;;;;15.35;12.73;;;;;;;9.51;80.98;97020.25;1640528;85;21002;-76
2021/05/31 01:16:28;;;;;;;18.05;13.53;;;;;;;9.48;81.03;97020.09;1641109;85;21347;-76
2021/05/31 01:18:54;;;;;;;15.85;14.15;;;;;;;9.47;80.98;97018.47;1667851;85;21338;-76
2021/05/31 01:21:34;;;;;;;15.43;13.55;;;;;;;9.44;80.99;97023.98;1669317;84;21031;-76
2021/05/31 01:24:26;;;;;;;16.23;13.32;;;;;;;9.39;81.04;97026.70;1646772;85;21137;-76
2021/05/31 01:27:11;;;;;;;14.73;12.73;;;;;;;9.36;81.05;97021.35;1651821;85;21002;-76
2021/05/31 01:29:38;;;;;;;15.05;12.93;;;;;;;9.32;80.96;97020.86;1655069;84;20966;-76
2021/05/31 01:32:04;;;;;;;16.90;13.40;;;;;;;9.30;81.02;97022.00;1687266;84;21267;-76
2021/05/31 01:34:34;;;;;;;15.83;13.68;;;;;;;9.30;80.97;97023.30;1682921;84;20966;-75
2021/05/31 01:37:05;;;;;;;18.40;13.05;;;;;;;9.29;81.06;97016.48;1681022;84;21336;-75
2021/05/31 01:39:32;;;;;;;22.52;13.48;;;;;;;9.26;81.08;97019.37;1676084;84;21005;-75
2021/05/31 01:41:59;;;;;;;22.70;13.80;;;;;;;9.23;81.25;97018.39;1656332;85;21055;-75
2021/05/31 01:44:26;;;;;;;14.78;13.22;;;;;;;9.19;81.40;97014.50;1675036;84;21379;-75
2021/05/31 01:46:52;;;;;;;15.70;13.70;;;;;;;9.18;81.42;97016.28;1678570;84;21030;-75
2021/05/31 01:49:17;;;;;;;16.42;14.07;;;;;;;9.19;81.35;97014.50;1675214;84;21060;-75
2021/05/31 01:51:44;;;;;;;17.92;13.05;;;;;;;9.20;81.43;97019.52;1668894;84;21339;-75
2021/05/31 01:54:12;;;;;;;14.90;13.40;;;;;;;9.22;81.40;97018.88;1687066;84;21010;-75
2021/05/31 01:56:38;;;;;;;18.98;13.75;;;;;;;9.23;81.45;97015.80;1671695;84;20982;-75
2021/05/31 01:59:05;;;;;;;17.07;13.32;;;;;;;9.21;81.38;97013.84;1673330;84;21014;-78
2021/05/31 02:01:33;;;;;;;15.95;13.35;;;;;;;9.20;81.44;97013.53;1683102;85;20958;-78
2021/05/31 02:03:59;;;;;;;16.85;13.10;;;;;;;9.17;81.36;97009.47;1675951;84;20995;-78
2021/05/31 02:06:25;;;;;;;18.42;12.85;;;;;;;9.16;81.27;97006.55;1675218;84;21003;-78
2021/05/31 02:08:51;;;;;;;18.05;13.58;;;;;;;9.14;81.25;97003.31;1682895;84;21069;-76
2021/05/31 02:11:44;;;;;;;18.75;13.75;;;;;;;9.14;81.19;96997.31;1654265;84;21125;-76
2021/05/31 02:14:40;;;;;;;19.67;14.78;;;;;;;9.13;81.17;97006.06;1668487;84;21038;-75
2021/05/31 02:17:22;;;;;;;20.80;13.70;;;;;;;9.05;81.09;97001.64;1654597;84;20998;-76
2021/05/31 02:19:52;;;;;;;17.70;13.72;;;;;;;8.99;81.17;96999.20;1655442;84;21098;-76
2021/05/31 02:22:18;;;;;;;15.45;13.20;;;;;;;8.98;81.12;96997.58;1649377;85;21003;-75
2021/05/31 02:24:43;;;;;;;17.98;13.75;;;;;;;8.98;81.01;96994.99;1678154;84;20951;-76
2021/05/31 02:27:09;;;;;;;15.48;13.40;;;;;;;8.98;81.00;96996.77;1684514;84;20982;-76
2021/05/31 02:29:36;;;;;;;15.90;13.45;;;;;;;8.97;81.05;96997.74;1668924;85;21010;-76
2021/05/31 02:32:02;;;;;;;14.93;13.28;;;;;;;8.93;81.25;96997.22;1648566;85;21013;-75
2021/05/31 02:34:29;;;;;;;15.93;12.28;;;;;;;8.92;81.37;96997.37;1644721;86;21053;-75
2021/05/31 02:36:55;;;;;;;16.07;12.35;;;;;;;8.91;81.32;96993.98;1664642;84;21260;-76
2021/05/31 02:39:21;;;;;;;16.50;12.75;;;;;;;8.92;81.38;96996.08;1660771;84;20999;-76
2021/05/31 02:41:47;;;;;;;16.17;13.15;;;;;;;8.93;81.51;96997.70;1639387;85;21014;-76
2021/05/31 02:44:13;;;;;;;16.55;13.98;;;;;;;8.95;81.59;96993.20;1652559;85;20991;-76
2021/05/31 02:46:39;;;;;;;18.00;14.28;;;;;;;8.98;81.64;96997.58;1644860;85;21094;-75
2021/05/31 02:49:07;;;;;;;16.75;14.65;;;;;;;9.01;81.73;96994.67;1626125;85;21125;-76
2021/05/31 02:51:38;;;;;;;18.45;14.28;;;;;;;9.03;81.77;96995.81;1655352;85;21101;-76
2021/05/31 02:54:04;;;;;;;16.27;13.55;;;;;;;9.08;81.74;96989.66;1632831;85;21018;-76
2021/05/31 02:56:30;;;;;;;18.82;14.10;;;;;;;9.10;81.66;96994.20;1632741;85;21065;-76
2021/05/31 02:58:56;;;;;;;16.67;14.98;;;;;;;9.12;81.60;96994.88;1614663;85;20997;-76
2021/05/31 03:01:21;;;;;;;16.95;15.05;;;;;;;9.14;81.72;96990.83;1640764;85;20982;-76
2021/05/31 03:03:47;;;;;;;17.32;14.40;;;;;;;9.16;81.74;96994.08;1611342;85;21002;-76
2021/05/31 03:06:13;;;;;;;18.10;14.28;;;;;;;9.18;81.74;96992.13;1639467;85;21030;-76
2021/05/31 03:08:38;;;;;;;17.25;12.23;;;;;;;9.20;81.68;96992.30;1627127;85;21424;-76
2021/05/31 03:11:04;;;;;;;17.05;14.85;;;;;;;9.25;81.85;96991.81;1643602;85;20967;-76
2021/05/31 03:13:30;;;;;;;15.45;13.30;;;;;;;9.26;81.79;97001.22;1650561;85;20989;-76
2021/05/31 03:15:56;;;;;;;16.87;13.93;;;;;;;9.28;81.78;97000.11;1652983;85;21079;-75
2021/05/31 03:18:21;;;;;;;17.67;13.75;;;;;;;9.28;81.79;96992.33;1649921;85;21058;-76
2021/05/31 03:20:47;;;;;;;14.87;13.20;;;;;;;9.28;81.83;96996.71;1637060;85;21118;-76
2021/05/31 03:23:13;;;;;;;17.77;12.93;;;;;;;9.30;81.84;96998.66;1660070;85;21331;-76
2021/05/31 03:25:39;;;;;;;17.77;12.78;;;;;;;9.35;81.75;96998.98;1663292;84;20997;-75
2021/05/31 03:28:05;;;;;;;16.00;12.82;;;;;;;9.37;81.83;96994.93;1663398;84;20967;-76
2021/05/31 03:30:31;;;;;;;16.02;14.25;;;;;;;9.37;81.98;96998.34;1639068;85;20990;-75
2021/05/31 03:32:57;;;;;;;16.07;13.03;;;;;;;9.38;82.10;96998.66;1654436;85;20986;-76
2021/05/31 03:35:23;;;;;;;16.20;13.30;;;;;;;9.43;82.21;97006.77;1655121;85;21003;-75
2021/05/31 03:37:49;;;;;;;16.15;12.85;;;;;;;9.45;82.00;97004.04;1656105;85;20955;-76
2021/05/31 03:40:15;;;;;;;15.05;12.47;;;;;;;9.46;81.99;96999.98;1659159;85;21005;-76
2021/05/31 03:42:42;;;;;;;14.03;12.63;;;;;;;9.48;81.94;97003.23;1647141;85;21109;-76
2021/05/31 03:45:09;;;;;;;17.37;13.58;;;;;;;9.50;82.04;97006.95;1650944;85;21062;-75
2021/05/31 03:47:35;;;;;;;15.55;13.32;;;;;;;9.51;82.01;97010.69;1657206;85;20986;-76
2021/05/31 03:50:01;;;;;;;16.48;13.80;;;;;;;9.53;82.05;97013.13;1640817;85;21038;-76
2021/05/31 03:52:27;;;;;;;14.73;12.85;;;;;;;9.56;82.09;97010.20;1635651;85;21062;-76
2021/05/31 03:54:52;;;;;;;14.07;12.18;;;;;;;9.59;81.88;97008.58;1634709;85;21058;-75
2021/05/31 03:57:18;;;;;;;13.60;12.18;;;;;;;9.61;81.77;97009.26;1662847;84;21456;-76
2021/05/31 03:59:47;;;;;;;14.70;12.80;;;;;;;9.65;81.75;97011.04;1668078;84;21013;-76
2021/05/31 04:02:12;;;;;;;15.85;13.60;;;;;;;9.65;81.68;97004.55;1646075;85;20967;-78
2021/05/31 04:04:42;;;;;;;16.48;12.55;;;;;;;9.65;81.70;97006.66;1668236;84;21070;-78
2021/05/31 04:12:37;;;;;;;14.47;12.65;;;;;;;9.79;81.90;97006.03;1664218;84;21017;-78
2021/05/31 04:15:04;;;;;;;17.98;13.75;;;;;;;9.86;81.78;97010.08;1674217;85;20975;-78
2021/05/31 04:17:29;;;;;;;16.23;13.22;;;;;;;9.86;81.81;97008.78;1655749;85;21078;-78
2021/05/31 04:19:55;;;;;;;16.87;13.72;;;;;;;9.85;81.74;97005.86;1632085;85;21034;-78
2021/05/31 04:22:21;;;;;;;16.30;13.18;;;;;;;9.84;81.63;97009.43;1617957;85;20939;-78
2021/05/31 04:24:46;;;;;;;15.40;13.58;;;;;;;9.84;81.45;97002.94;1658282;85;20959;-78
2021/05/31 04:27:12;;;;;;;14.70;12.47;;;;;;;9.81;81.53;96998.89;1635534;84;20971;-78
2021/05/31 04:29:38;;;;;;;15.38;13.48;;;;;;;9.85;81.60;96998.88;1666163;85;21825;-78
2021/05/31 04:32:04;;;;;;;16.30;13.53;;;;;;;9.86;81.55;96997.09;1668122;84;20966;-78
2021/05/31 04:34:31;;;;;;;16.00;14.30;;;;;;;9.90;81.61;96995.30;1674834;84;21058;-78
2021/05/31 04:36:57;;;;;;;14.75;13.03;;;;;;;9.93;81.61;96992.89;1681403;84;20982;-77
2021/05/31 04:39:23;;;;;;;15.13;13.53;;;;;;;9.94;81.47;96986.73;1665602;84;21331;-77
2021/05/31 04:41:48;;;;;;;16.07;12.65;;;;;;;10.00;81.61;96988.66;1636953;86;21001;-77
2021/05/31 04:44:14;;;;;;;16.32;12.53;;;;;;;10.06;81.56;96988.00;1653183;85;21010;-77
2021/05/31 04:46:40;;;;;;;15.05;13.32;;;;;;;10.10;81.36;96995.81;1658481;85;21006;-77
2021/05/31 04:49:06;;;;;;;16.90;13.70;;;;;;;10.12;81.43;96991.26;1674457;85;21291;-77
2021/05/31 04:51:32;;;;;;;16.85;14.25;;;;;;;10.15;81.41;96992.72;1669820;83;20928;-77
2021/05/31 04:53:58;;;;;;;18.10;14.33;;;;;;;10.15;81.47;96994.82;1665536;85;20950;-77
2021/05/31 04:56:25;;;;;;;16.00;12.70;;;;;;;10.20;81.49;96996.92;1686215;84;21268;-77
2021/05/31 04:58:51;;;;;;;15.03;12.40;;;;;;;10.27;81.31;97002.32;1656740;85;20998;-77
2021/05/31 05:01:17;;;;;;;14.87;12.20;;;;;;;10.31;81.03;96994.52;1657781;85;21389;-77
2021/05/31 05:03:43;;;;;;;14.45;12.95;;;;;;;10.31;80.88;96995.32;1662335;84;21279;-77
2021/05/31 05:06:08;;;;;;;14.95;13.35;;;;;;;10.36;80.98;96989.63;1639485;85;20961;-77
2021/05/31 05:08:34;;;;;;;14.58;13.08;;;;;;;10.41;81.18;96996.42;1652028;85;20960;-77
2021/05/31 05:11:00;;;;;;;14.15;12.65;;;;;;;10.40;80.92;96997.40;1653892;85;21100;-77
2021/05/31 05:13:26;;;;;;;15.28;12.37;;;;;;;10.41;80.81;96995.12;1652553;85;21336;-77
2021/05/31 05:15:51;;;;;;;14.78;12.33;;;;;;;10.48;80.89;96997.40;1617692;87;21095;-77
2021/05/31 05:18:17;;;;;;;14.53;12.55;;;;;;;10.57;80.88;96992.48;1659618;84;21370;-77
2021/05/31 05:20:43;;;;;;;16.67;14.28;;;;;;;10.64;80.72;96995.25;1650566;85;21098;-77
2021/05/31 05:23:08;;;;;;;16.97;15.10;;;;;;;10.65;80.54;96991.67;1663504;84;21062;-77
2021/05/31 05:25:34;;;;;;;18.12;14.78;;;;;;;10.67;80.73;96987.92;1662044;85;21327;-76
2021/05/31 05:28:00;;;;;;;17.77;14.95;;;;;;;10.74;80.92;96994.09;1662170;85;21022;-77
2021/05/31 05:30:29;;;;;;;18.45;16.55;;;;;;;10.86;80.76;96987.20;1668628;84;21048;-76
2021/05/31 05:33:00;;;;;;;15.63;13.72;;;;;;;10.90;80.90;96984.58;1663255;85;21257;-77
2021/05/31 05:35:48;;;;;;;18.30;16.30;;;;;;;10.96;80.68;96989.94;1671783;84;21053;-76
2021/05/31 05:44:17;;;;;;;24.90;18.82;;;;;;;10.97;79.51;96989.45;1677707;84;21418;-77
2021/05/31 05:48:18;;;;;;;25.55;20.65;;;;;;;11.05;79.93;96987.61;1626308;85;21314;-77
2021/05/31 05:50:44;;;;;;;24.57;22.02;;;;;;;11.12;80.03;96989.05;1650180;84;20996;-76
2021/05/31 05:53:09;;;;;;;26.65;22.80;;;;;;;11.13;80.01;96983.68;1672688;84;21061;-76
2021/05/31 05:55:35;;;;;;;22.37;19.98;;;;;;;11.09;79.86;96990.70;1670082;85;21275;-76
2021/05/31 05:58:01;;;;;;;24.55;22.10;;;;;;;11.09;79.63;96992.00;1657795;85;21086;-76
2021/05/31 06:00:28;;;;;;;22.27;19.80;;;;;;;11.13;79.55;96994.09;1679298;85;21036;-76
2021/05/31 06:02:55;;;;;;;19.25;17.27;;;;;;;11.17;79.35;96994.55;1656231;85;21046;-76
2021/05/31 06:05:21;;;;;;;20.05;17.90;;;;;;;11.28;78.92;96995.48;1653336;84;21101;-76
2021/05/31 06:07:46;;;;;;;20.10;17.85;;;;;;;11.33;79.02;96995.77;1660047;84;21282;-76
2021/05/31 06:10:13;;;;;;;21.17;18.98;;;;;;;11.35;78.98;96998.19;1647161;84;20998;-76
2021/05/31 06:12:39;;;;;;;22.93;20.60;;;;;;;11.47;79.44;96999.92;1681128;84;21283;-77
2021/05/31 06:15:06;;;;;;;21.87;19.45;;;;;;;11.42;78.59;96997.35;1671300;85;20974;-76
2021/05/31 06:17:32;;;;;;;20.32;18.32;;;;;;;11.41;79.12;96998.34;1667734;84;21012;-76
2021/05/31 06:20:00;;;;;;;19.75;17.65;;;;;;;11.50;79.27;96996.97;1668727;85;21121;-76
2021/05/31 06:22:32;;;;;;;22.60;20.35;;;;;;;11.62;79.15;96998.20;1665249;84;20999;-76
2021/05/31 06:24:57;;;;;;;22.13;19.90;;;;;;;11.63;78.11;96996.72;1667150;85;20982;-76
2021/05/31 06:27:23;;;;;;;27.35;24.63;;;;;;;11.64;78.14;96998.34;1661881;84;20975;-76
2021/05/31 06:29:49;;;;;;;25.68;23.18;;;;;;;11.71;78.53;96999.75;1645875;85;20970;-76
2021/05/31 06:32:14;;;;;;;29.02;26.23;;;;;;;11.69;78.35;97002.53;1660434;85;21268;-76
2021/05/31 06:34:40;;;;;;;29.15;26.25;;;;;;;11.66;78.24;97002.08;1634603;86;21042;-79
2021/05/31 06:37:08;;;;;;;27.62;24.92;;;;;;;11.79;78.38;97004.14;1650715;85;21050;-79
2021/05/31 06:39:34;;;;;;;27.95;25.32;;;;;;;11.86;78.28;96997.23;1653447;85;21087;-78
2021/05/31 06:42:00;;;;;;;31.17;27.70;;;;;;;11.91;78.10;96997.55;1632828;86;21319;-79
2021/05/31 06:44:26;;;;;;;44.67;40.70;;;;;;;11.85;77.25;97000.33;1637099;86;20990;-78
2021/05/31 06:46:52;;;;;;;28.12;25.30;;;;;;;11.80;77.54;97003.96;1634433;86;21041;-79
2021/05/31 06:49:18;;;;;;;28.87;26.12;;;;;;;11.85;77.38;97008.14;1649767;86;21279;-78
2021/05/31 06:51:43;;;;;;;26.05;23.32;;;;;;;11.98;77.77;97008.38;1656791;85;21058;-78
2021/05/31 06:54:10;;;;;;;25.52;22.98;;;;;;;12.25;77.11;97000.50;1671303;85;21019;-79
2021/05/31 06:56:35;;;;;;;22.77;20.62;;;;;;;12.36;76.28;96996.64;1677567;85;20963;-79
2021/05/31 06:59:01;;;;;;;25.48;22.98;;;;;;;12.27;76.11;97004.23;1674016;85;20935;-78
2021/05/31 07:01:27;;;;;;;30.20;25.92;;;;;;;12.21;76.63;97005.76;1674218;85;20979;-79
2021/05/31 07:03:53;;;;;;;28.42;25.60;;;;;;;12.13;76.52;97010.22;1675875;85;21309;-79
2021/05/31 07:06:18;;;;;;;28.25;25.48;;;;;;;12.03;76.44;97006.54;1672345;85;21054;-78
2021/05/31 07:08:44;;;;;;;26.93;24.10;;;;;;;11.99;76.59;96998.77;1652841;85;21286;-79
2021/05/31 07:11:13;;;;;;;24.85;22.05;;;;;;;12.02;76.69;96999.71;1659031;85;20975;-78
2021/05/31 07:13:37;;;;;;;24.27;21.68;;;;;;;12.17;76.34;96997.14;1657132;85;21015;-79
2021/05/31 07:16:04;;;;;;;25.20;22.48;;;;;;;12.29;76.27;96994.44;1670411;85;20963;-79
2021/05/31 07:18:29;;;;;;;24.50;22.10;;;;;;;12.54;76.56;96989.31;1633979;85;21019;-79
2021/05/31 07:20:55;;;;;;;23.87;21.55;;;;;;;12.72;76.87;96990.75;1660881;85;21070;-79
2021/05/31 07:23:21;;;;;;;26.35;24.02;;;;;;;12.77;76.79;96994.93;1645981;86;21015;-79
2021/05/31 07:25:47;;;;;;;26.20;23.52;;;;;;;12.79;76.47;96987.23;1659709;85;21310;-79
2021/05/31 07:28:14;;;;;;;25.70;23.15;;;;;;;12.77;76.00;96989.71;1649318;86;21005;-79
2021/05/31 07:30:40;;;;;;;24.32;22.02;;;;;;;12.72;74.56;97002.00;1639280;86;21359;-78
2021/05/31 07:33:09;;;;;;;25.05;22.55;;;;;;;12.74;75.52;96991.38;1650962;86;21006;-76
2021/05/31 07:35:33;;;;;;;25.27;22.62;;;;;;;12.89;76.49;96993.49;1655023;86;21118;-76
2021/05/31 07:37:59;;;;;;;24.90;22.48;;;;;;;13.04;75.91;96994.29;1659457;85;21052;-76
2021/05/31 07:40:25;;;;;;;23.87;21.62;;;;;;;13.12;75.24;96996.78;1650835;86;21042;-76
2021/05/31 07:42:51;;;;;;;21.50;19.30;;;;;;;13.09;74.81;96997.16;1644470;85;21176;-76
2021/05/31 07:45:17;;;;;;;23.30;20.77;;;;;;;13.02;74.13;96991.06;1658170;85;20970;-76
2021/05/31 07:47:43;;;;;;;23.10;20.80;;;;;;;13.03;74.51;96990.06;1660487;85;21026;-75
2021/05/31 07:50:11;;;;;;;22.15;19.87;;;;;;;13.12;75.13;96985.04;1643576;85;21034;-77
2021/05/31 07:52:37;;;;;;;23.15;21.05;;;;;;;13.22;75.28;96988.71;1660271;85;20959;-76
2021/05/31 07:55:08;;;;;;;22.98;20.75;;;;;;;13.12;73.96;96984.23;1659748;85;21280;-77
2021/05/31 07:57:34;;;;;;;23.65;21.45;;;;;;;13.26;73.79;96978.70;1645859;85;20988;-77
2021/05/31 08:00:00;;;;;;;21.75;19.85;;;;;;;13.29;72.28;96979.14;1655266;85;20970;-77
2021/05/31 08:02:26;;;;;;;21.80;19.73;;;;;;;13.35;73.07;96979.73;1652475;85;21027;-77
2021/05/31 08:04:53;;;;;;;21.23;19.25;;;;;;;13.58;74.31;96978.75;1655988;85;20967;-78
2021/05/31 08:07:18;;;;;;;20.48;18.45;;;;;;;13.60;72.23;96977.56;1657219;85;21349;-77
2021/05/31 08:09:45;;;;;;;26.52;18.60;;;;;;;13.53;72.03;96978.51;1658676;85;21053;-77
2021/05/31 08:12:11;;;;;;;18.67;16.70;;;;;;;13.40;72.22;96985.20;1628945;86;21014;-78
2021/05/31 08:14:37;;;;;;;21.05;19.00;;;;;;;13.28;71.16;96978.83;1655670;85;21020;-77
2021/05/31 08:17:03;;;;;;;19.70;17.90;;;;;;;13.47;72.41;96976.92;1659157;85;21296;-77
2021/05/31 08:19:30;;;;;;;20.00;18.15;;;;;;;13.63;71.92;96971.97;1656186;85;21005;-78
2021/05/31 08:21:56;;;;;;;20.55;18.55;;;;;;;13.79;71.59;96970.91;1675155;83;21373;-77
2021/05/31 08:24:22;;;;;;;18.30;16.62;;;;;;;14.00;71.91;96967.49;1654150;85;20968;-77
2021/05/31 08:26:48;;;;;;;17.42;15.65;;;;;;;13.97;71.17;96966.04;1658625;84;20962;-77
2021/05/31 08:29:13;;;;;;;17.67;15.95;;;;;;;13.87;70.52;96972.10;1635902;84;21256;-77
2021/05/31 08:31:39;;;;;;;17.95;16.15;;;;;;;13.79;70.44;96973.02;1634643;84;20930;-77
2021/05/31 08:34:05;;;;;;;16.27;14.68;;;;;;;13.83;70.16;96972.17;1658458;85;20955;-77
2021/05/31 08:36:30;;;;;;;16.30;14.55;;;;;;;14.09;69.57;96966.34;1658118;84;21239;-77
2021/05/31 08:38:58;;;;;;;16.80;15.05;;;;;;;14.26;69.39;96959.84;1658057;84;20938;-77
2021/05/31 08:41:26;;;;;;;14.68;13.25;;;;;;;14.49;69.15;96961.44;1623274;85;21026;-77
2021/05/31 08:43:52;;;;;;;13.55;12.15;;;;;;;14.69;69.01;96951.89;1649924;84;21002;-77
2021/05/31 08:46:18;;;;;;;17.55;15.68;;;;;;;14.98;68.65;96955.56;1649640;84;21037;-77
2021/05/31 08:48:44;;;;;;;17.02;15.53;;;;;;;15.25;68.04;96947.28;1635452;84;21020;-77
2021/05/31 08:51:10;;;;;;;14.43;13.15;;;;;;;15.51;67.58;96942.63;1631379;84;21351;-77
2021/05/31 08:53:36;;;;;;;15.65;14.07;;;;;;;15.53;65.91;96942.42;1649840;84;20955;-77
2021/05/31 08:56:04;;;;;;;15.68;14.28;;;;;;;15.17;66.73;96946.66;1650049;84;20967;-77
2021/05/31 08:58:30;;;;;;;17.57;14.95;;;;;;;15.29;68.45;96947.69;1648454;84;20990;-77
2021/05/31 09:00:56;;;;;;;16.40;14.68;;;;;;;15.27;68.54;96942.65;1649256;84;20987;-77
2021/05/31 09:03:21;;;;;;;14.30;12.82;;;;;;;15.37;68.82;96936.24;1648139;84;21268;-78
2021/05/31 09:05:49;;;;;;;11.38;10.28;;;;;;;15.53;66.77;96927.52;1620652;84;21022;-78
2021/05/31 09:08:20;;;;;;;14.13;12.63;;;;;;;15.69;65.76;96926.86;1626133;84;20981;-77
2021/05/31 09:11:00;;;;;;;14.95;13.53;;;;;;;15.71;65.99;96929.58;1628319;84;21304;-77
2021/05/31 09:13:40;;;;;;;15.83;14.35;;;;;;;15.85;66.09;96927.27;1647721;84;21031;-77
2021/05/31 09:16:22;;;;;;;16.12;14.53;;;;;;;16.15;66.58;96919.00;1645816;84;21008;-77
2021/05/31 09:18:58;;;;;;;16.07;13.88;;;;;;;16.38;65.86;96913.30;1649172;84;21042;-78
2021/05/31 09:21:35;;;;;;;13.13;11.83;;;;;;;16.58;65.09;96917.19;1634227;84;21078;-77
2021/05/31 09:24:06;;;;;;;10.90;9.80;;;;;;;16.33;64.14;96919.17;1639619;84;21036;-78
2021/05/31 09:26:56;;;;;;;11.00;9.90;;;;;;;16.11;63.70;96921.23;1641700;84;21055;-77
2021/05/31 09:29:23;;;;;;;9.43;8.00;;;;;;;16.00;63.59;96921.83;1648252;84;21311;-77
2021/05/31 09:32:09;;;;;;;9.00;8.05;;;;;;;15.87;63.73;96922.63;1648838;84;20931;-77
2021/05/31 09:34:35;;;;;;;9.95;8.95;;;;;;;15.84;63.81;96913.87;1648977;84;20978;-78
2021/05/31 09:37:03;;;;;;;11.65;8.80;;;;;;;15.56;63.94;96923.17;1650066;84;21050;-77
2021/05/31 09:39:38;;;;;;;10.45;9.23;;;;;;;15.38;66.26;96932.11;1649807;84;21315;-77
2021/05/31 09:42:14;;;;;;;11.68;9.53;;;;;;;15.19;64.64;96935.49;1649750;84;21352;-77
2021/05/31 09:44:49;;;;;;;14.43;11.57;;;;;;;14.96;64.92;96927.45;1649283;84;21006;-77
2021/05/31 09:47:15;;;;;;;12.53;11.22;;;;;;;14.74;65.82;96935.61;1622152;86;21347;-77
2021/05/31 09:49:42;;;;;;;14.40;11.50;;;;;;;14.46;66.17;96935.16;1595807;88;20955;-77
2021/05/31 09:52:12;;;;;;;13.28;11.78;;;;;;;14.28;66.91;96935.62;1641639;84;21116;-77
2021/05/31 09:54:42;;;;;;;12.68;10.80;;;;;;;14.11;67.32;96928.56;1631409;84;21070;-77
2021/05/31 09:57:24;;;;;;;11.43;9.95;;;;;;;14.01;67.11;96928.11;1648448;84;21086;-77
2021/05/31 09:59:59;;;;;;;12.80;10.35;;;;;;;13.84;67.12;96933.80;1648621;84;21074;-79
2021/05/31 10:08:40;;;;;;;13.55;11.70;;;;;;;13.58;69.30;96936.97;1632906;85;21424;-79
2021/05/31 10:10:39;;;;;;;14.53;12.30;;;;;;;13.47;69.58;96938.27;1630440;85;21114;-79
2021/05/31 10:13:05;;;;;;;11.35;10.03;;;;;;;13.48;70.09;96934.66;1640010;85;21050;-79
2021/05/31 10:15:41;;;;;;;13.65;10.88;;;;;;;13.48;69.57;96933.35;1648911;85;21067;-79
2021/05/31 10:18:15;;;;;;;15.28;9.98;;;;;;;13.40;69.92;96934.30;1643812;85;20988;-79
2021/05/31 10:20:41;;;;;;;12.68;9.73;;;;;;;13.41;70.44;96938.52;1645708;85;20987;-77
2021/05/31 10:23:10;;;;;;;10.45;8.50;;;;;;;13.44;71.17;96933.42;1642379;85;20943;-77
2021/05/31 10:25:39;;;;;;;8.90;8.00;;;;;;;13.43;71.04;96930.00;1649348;85;20987;-77
2021/05/31 10:28:16;;;;;;;13.93;9.50;;;;;;;13.42;71.72;96923.67;1649962;85;20997;-77
2021/05/31 10:30:48;;;;;;;12.47;8.30;;;;;;;13.45;71.13;96921.48;1657480;85;21061;-78
2021/05/31 10:33:18;;;;;;;9.48;7.53;;;;;;;13.45;71.09;96924.09;1652310;85;21007;-78
2021/05/31 10:35:45;;;;;;;10.75;8.48;;;;;;;13.30;70.12;96932.47;1648797;85;20971;-78
2021/05/31 10:38:18;;;;;;;10.15;9.15;;;;;;;13.16;70.81;96932.80;1649529;85;20979;-78
2021/05/31 10:40:50;;;;;;;11.50;8.78;;;;;;;13.07;71.82;96939.63;1641546;85;21387;-78
2021/05/31 10:43:22;;;;;;;11.03;8.93;;;;;;;13.01;72.50;96936.43;1642236;85;20985;-78
2021/05/31 10:45:49;;;;;;;8.43;7.22;;;;;;;12.96;73.02;96927.05;1626559;86;21018;-78
2021/05/31 10:48:21;;;;;;;12.98;10.10;;;;;;;12.91;73.38;96936.23;1588745;87;21038;-78
2021/05/31 10:50:59;;;;;;;11.35;9.93;;;;;;;12.93;73.42;96936.86;1620491;86;20958;-78
2021/05/31 10:53:30;;;;;;;9.43;7.87;;;;;;;12.91;73.36;96930.22;1633695;86;21018;-78
2021/05/31 10:56:09;;;;;;;9.55;8.33;;;;;;;12.83;71.56;96939.43;1618227;86;21002;-78
2021/05/31 10:58:40;;;;;;;7.95;7.00;;;;;;;12.80;73.08;96926.27;1635593;86;21054;-78
2021/05/31 11:01:09;;;;;;;8.23;6.15;;;;;;;12.89;73.33;96916.06;1597305;87;21018;-78
2021/05/31 11:03:53;;;;;;;6.62;5.62;;;;;;;13.09;73.95;96920.69;1635708;86;20974;-78
2021/05/31 11:06:21;;;;;;;9.45;6.58;;;;;;;13.30;74.48;96909.48;1636124;86;21077;-78
2021/05/31 11:08:53;;;;;;;10.05;6.42;;;;;;;13.56;74.23;96908.94;1634143;86;21013;-78
2021/05/31 11:11:30;;;;;;;;;;;;;;;13.77;74.53;96899.27;1634096;86;21017;-78
2021/05/31 11:13:56;;;;;;;4.87;4.37;;;;;;;13.95;74.90;96896.69;1618380;86;20365;-78
2021/05/31 11:16:23;;;;;;;5.72;4.97;;;;;;;14.07;74.52;96896.48;1636378;86;21022;-78
2021/05/31 11:18:56;;;;;;;5.85;5.25;;;;;;;14.33;75.05;96895.36;1635135;86;21037;-78
2021/05/31 11:21:37;;;;;;;6.05;5.45;;;;;;;14.50;74.75;96891.15;1636273;86;21049;-78
2021/05/31 11:24:11;;;;;;;8.53;7.70;;;;;;;14.69;74.44;96892.54;1636053;86;21358;-78
2021/05/31 11:26:39;;;;;;;8.23;6.30;;;;;;;14.73;71.88;96890.34;1635996;86;21008;-78
2021/05/31 11:29:07;;;;;;;7.35;5.87;;;;;;;14.91;72.04;96889.30;1636028;86;21010;-78
2021/05/31 11:31:33;;;;;;;9.25;6.42;;;;;;;15.16;71.86;96884.84;1635676;86;21105;-78
2021/05/31 11:33:59;;;;;;;7.35;6.50;;;;;;;15.29;70.68;96880.45;1635665;86;21336;-78
2021/05/31 11:36:37;;;;;;;8.63;7.05;;;;;;;15.19;70.00;96887.88;1636410;86;21018;-78
2021/05/31 11:39:14;;;;;;;7.25;6.53;;;;;;;14.95;68.59;96889.20;1630792;85;21005;-78
2021/05/31 11:41:43;;;;;;;9.80;6.53;;;;;;;14.74;70.00;96890.64;1647130;85;21046;-79
2021/05/31 11:44:12;;;;;;;7.47;6.75;;;;;;;14.59;69.64;96886.85;1675236;84;21101;-78
2021/05/31 11:46:50;;;;;;;7.35;6.25;;;;;;;14.45;71.11;96878.63;1674632;84;21107;-78